sensor_id;sensor_type;location;lat;lon;timestamp;P1;durP1;ratioP1;P2;durP2;ratioP2
39880;SDS011;25554;44.954;10.068;2022-08-14T00:00:52;8.93;;;7.32;;
39880;SDS011;25554;44.954;10.068;2022-08-14T00:03:26;10.77;;;7.30;;
39880;SDS011;25554;44.954;10.068;2022-08-14T00:05:55;9.32;;;6.75;;
39880;SDS011;25554;44.954;10.068;2022-08-14T00:08:23;6.93;;;6.22;;
39880;SDS011;25554;44.954;10.068;2022-08-14T00:10:49;7.03;;;6.32;;
39880;SDS011;25554;44.954;10.068;2022-08-14T00:13:20;8.00;;;6.72;;
39880;SDS011;25554;44.954;10.068;2022-08-14T00:15:49;6.35;;;5.60;;
39880;SDS011;25554;44.954;10.068;2022-08-14T00:18:17;7.13;;;6.43;;
39880;SDS011;25554;44.954;10.068;2022-08-14T00:20:46;7.60;;;6.35;;
39880;SDS011;25554;44.954;10.068;2022-08-14T00:23:13;6.88;;;6.18;;
39880;SDS011;25554;44.954;10.068;2022-08-14T00:25:41;6.53;;;5.68;;
39880;SDS011;25554;44.954;10.068;2022-08-14T00:28:10;6.55;;;5.90;;
39880;SDS011;25554;44.954;10.068;2022-08-14T00:30:38;7.93;;;6.15;;
39880;SDS011;25554;44.954;10.068;2022-08-14T00:33:05;8.32;;;6.28;;
39880;SDS011;25554;44.954;10.068;2022-08-14T00:35:33;6.03;;;5.50;;
39880;SDS011;25554;44.954;10.068;2022-08-14T00:37:59;5.20;;;4.70;;
39880;SDS011;25554;44.954;10.068;2022-08-14T00:40:26;5.70;;;5.15;;
39880;SDS011;25554;44.954;10.068;2022-08-14T00:42:53;6.68;;;4.72;;
39880;SDS011;25554;44.954;10.068;2022-08-14T00:45:19;6.10;;;5.50;;
39880;SDS011;25554;44.954;10.068;2022-08-14T00:47:46;5.40;;;4.95;;
39880;SDS011;25554;44.954;10.068;2022-08-14T00:50:15;5.22;;;4.82;;
39880;SDS011;25554;44.954;10.068;2022-08-14T00:52:45;5.70;;;5.20;;
39880;SDS011;25554;44.954;10.068;2022-08-14T00:55:13;4.70;;;4.35;;
39880;SDS011;25554;44.954;10.068;2022-08-14T00:57:40;5.38;;;4.15;;
39880;SDS011;25554;44.954;10.068;2022-08-14T01:00:11;4.35;;;3.92;;
39880;SDS011;25554;44.954;10.068;2022-08-14T01:02:40;4.32;;;3.92;;
39880;SDS011;25554;44.954;10.068;2022-08-14T01:05:09;4.65;;;4.20;;
39880;SDS011;25554;44.954;10.068;2022-08-14T01:07:49;4.40;;;4.00;;
39880;SDS011;25554;44.954;10.068;2022-08-14T01:10:19;3.85;;;3.55;;
39880;SDS011;25554;44.954;10.068;2022-08-14T01:12:46;4.50;;;4.10;;
39880;SDS011;25554;44.954;10.068;2022-08-14T01:15:13;5.05;;;4.35;;
39880;SDS011;25554;44.954;10.068;2022-08-14T01:17:41;5.57;;;4.93;;
39880;SDS011;25554;44.954;10.068;2022-08-14T01:20:26;4.70;;;4.15;;
39880;SDS011;25554;44.954;10.068;2022-08-14T01:23:13;5.68;;;4.32;;
39880;SDS011;25554;44.954;10.068;2022-08-14T01:25:40;5.47;;;3.83;;
39880;SDS011;25554;44.954;10.068;2022-08-14T01:30:33;5.95;;;4.25;;
39880;SDS011;25554;44.954;10.068;2022-08-14T01:33:03;4.15;;;3.83;;
39880;SDS011;25554;44.954;10.068;2022-08-14T01:35:31;7.78;;;4.57;;
39880;SDS011;25554;44.954;10.068;2022-08-14T01:40:24;4.80;;;4.35;;
39880;SDS011;25554;44.954;10.068;2022-08-14T01:42:51;4.80;;;4.38;;
39880;SDS011;25554;44.954;10.068;2022-08-14T01:45:18;4.57;;;4.18;;
39880;SDS011;25554;44.954;10.068;2022-08-14T01:50:11;4.90;;;4.18;;
39880;SDS011;25554;44.954;10.068;2022-08-14T01:52:38;4.53;;;4.13;;
39880;SDS011;25554;44.954;10.068;2022-08-14T01:55:06;6.28;;;4.97;;
39880;SDS011;25554;44.954;10.068;2022-08-14T01:57:34;6.03;;;4.47;;
39880;SDS011;25554;44.954;10.068;2022-08-14T02:00:05;4.47;;;4.03;;
39880;SDS011;25554;44.954;10.068;2022-08-14T02:02:34;4.80;;;4.40;;
39880;SDS011;25554;44.954;10.068;2022-08-14T02:05:01;6.95;;;3.75;;
39880;SDS011;25554;44.954;10.068;2022-08-14T02:07:28;4.45;;;3.75;;
39880;SDS011;25554;44.954;10.068;2022-08-14T02:09:57;4.93;;;4.47;;
39880;SDS011;25554;44.954;10.068;2022-08-14T02:12:24;4.53;;;4.13;;
39880;SDS011;25554;44.954;10.068;2022-08-14T02:14:50;6.35;;;4.70;;
39880;SDS011;25554;44.954;10.068;2022-08-14T02:17:17;5.25;;;4.75;;
39880;SDS011;25554;44.954;10.068;2022-08-14T02:19:47;5.35;;;4.85;;
39880;SDS011;25554;44.954;10.068;2022-08-14T02:22:14;6.13;;;5.10;;
39880;SDS011;25554;44.954;10.068;2022-08-14T02:24:43;6.00;;;5.40;;
39880;SDS011;25554;44.954;10.068;2022-08-14T02:27:10;5.75;;;5.22;;
39880;SDS011;25554;44.954;10.068;2022-08-14T02:29:37;5.72;;;5.28;;
39880;SDS011;25554;44.954;10.068;2022-08-14T02:32:05;6.85;;;5.85;;
39880;SDS011;25554;44.954;10.068;2022-08-14T02:34:35;7.15;;;6.22;;
39880;SDS011;25554;44.954;10.068;2022-08-14T02:37:04;7.05;;;6.45;;
39880;SDS011;25554;44.954;10.068;2022-08-14T02:39:37;7.55;;;5.68;;
39880;SDS011;25554;44.954;10.068;2022-08-14T02:42:09;5.93;;;5.40;;
39880;SDS011;25554;44.954;10.068;2022-08-14T02:44:39;6.20;;;5.45;;
39880;SDS011;25554;44.954;10.068;2022-08-14T02:47:06;6.18;;;5.65;;
39880;SDS011;25554;44.954;10.068;2022-08-14T02:49:34;6.57;;;5.97;;
39880;SDS011;25554;44.954;10.068;2022-08-14T02:52:02;7.63;;;5.97;;
39880;SDS011;25554;44.954;10.068;2022-08-14T02:54:30;6.75;;;5.70;;
39880;SDS011;25554;44.954;10.068;2022-08-14T02:56:58;8.38;;;7.57;;
39880;SDS011;25554;44.954;10.068;2022-08-14T02:59:27;7.50;;;6.75;;
39880;SDS011;25554;44.954;10.068;2022-08-14T03:01:56;10.93;;;7.47;;
39880;SDS011;25554;44.954;10.068;2022-08-14T03:04:23;6.85;;;6.25;;
39880;SDS011;25554;44.954;10.068;2022-08-14T03:06:51;9.15;;;7.03;;
39880;SDS011;25554;44.954;10.068;2022-08-14T03:11:44;8.10;;;7.40;;
39880;SDS011;25554;44.954;10.068;2022-08-14T03:14:11;8.57;;;7.78;;
39880;SDS011;25554;44.954;10.068;2022-08-14T03:16:39;9.40;;;7.55;;
39880;SDS011;25554;44.954;10.068;2022-08-14T03:19:06;9.50;;;8.65;;
39880;SDS011;25554;44.954;10.068;2022-08-14T03:21:34;9.32;;;8.45;;
39880;SDS011;25554;44.954;10.068;2022-08-14T03:24:03;9.63;;;8.48;;
39880;SDS011;25554;44.954;10.068;2022-08-14T03:26:37;8.32;;;7.47;;
39880;SDS011;25554;44.954;10.068;2022-08-14T03:29:05;8.73;;;7.93;;
39880;SDS011;25554;44.954;10.068;2022-08-14T03:31:33;9.32;;;8.43;;
39880;SDS011;25554;44.954;10.068;2022-08-14T03:34:01;9.65;;;8.75;;
39880;SDS011;25554;44.954;10.068;2022-08-14T03:36:29;10.85;;;9.00;;
39880;SDS011;25554;44.954;10.068;2022-08-14T03:38:58;8.60;;;7.80;;
39880;SDS011;25554;44.954;10.068;2022-08-14T03:41:26;12.15;;;10.95;;
39880;SDS011;25554;44.954;10.068;2022-08-14T03:43:55;11.10;;;10.10;;
39880;SDS011;25554;44.954;10.068;2022-08-14T03:46:24;11.32;;;10.23;;
39880;SDS011;25554;44.954;10.068;2022-08-14T03:48:53;10.48;;;9.40;;
39880;SDS011;25554;44.954;10.068;2022-08-14T03:51:20;8.18;;;7.38;;
39880;SDS011;25554;44.954;10.068;2022-08-14T03:53:47;9.75;;;8.75;;
39880;SDS011;25554;44.954;10.068;2022-08-14T03:56:15;9.73;;;8.82;;
39880;SDS011;25554;44.954;10.068;2022-08-14T03:58:44;9.20;;;8.30;;
39880;SDS011;25554;44.954;10.068;2022-08-14T04:01:14;8.73;;;7.93;;
39880;SDS011;25554;44.954;10.068;2022-08-14T04:03:47;10.68;;;9.63;;
39880;SDS011;25554;44.954;10.068;2022-08-14T04:06:14;10.15;;;9.25;;
39880;SDS011;25554;44.954;10.068;2022-08-14T04:08:42;10.98;;;8.95;;
39880;SDS011;25554;44.954;10.068;2022-08-14T04:11:09;9.57;;;8.57;;
39880;SDS011;25554;44.954;10.068;2022-08-14T04:13:36;9.85;;;8.90;;
39880;SDS011;25554;44.954;10.068;2022-08-14T04:16:12;10.57;;;9.57;;
39880;SDS011;25554;44.954;10.068;2022-08-14T04:18:42;10.05;;;9.05;;
39880;SDS011;25554;44.954;10.068;2022-08-14T04:21:11;11.80;;;10.60;;
39880;SDS011;25554;44.954;10.068;2022-08-14T04:23:39;10.23;;;9.02;;
39880;SDS011;25554;44.954;10.068;2022-08-14T04:26:08;10.45;;;9.45;;
39880;SDS011;25554;44.954;10.068;2022-08-14T04:28:36;8.05;;;7.32;;
39880;SDS011;25554;44.954;10.068;2022-08-14T04:31:04;11.32;;;8.55;;
39880;SDS011;25554;44.954;10.068;2022-08-14T04:33:31;8.00;;;7.20;;
39880;SDS011;25554;44.954;10.068;2022-08-14T04:35:58;11.52;;;7.55;;
39880;SDS011;25554;44.954;10.068;2022-08-14T04:38:25;9.68;;;8.40;;
39880;SDS011;25554;44.954;10.068;2022-08-14T04:41:10;11.02;;;9.85;;
39880;SDS011;25554;44.954;10.068;2022-08-14T04:43:56;12.00;;;10.73;;
39880;SDS011;25554;44.954;10.068;2022-08-14T04:46:23;12.90;;;11.32;;
39880;SDS011;25554;44.954;10.068;2022-08-14T04:48:50;11.82;;;10.57;;
39880;SDS011;25554;44.954;10.068;2022-08-14T04:53:45;12.23;;;10.07;;
39880;SDS011;25554;44.954;10.068;2022-08-14T04:56:17;10.88;;;9.77;;
39880;SDS011;25554;44.954;10.068;2022-08-14T04:58:48;10.63;;;9.55;;
39880;SDS011;25554;44.954;10.068;2022-08-14T05:01:23;9.60;;;7.95;;
39880;SDS011;25554;44.954;10.068;2022-08-14T05:03:50;14.35;;;9.10;;
39880;SDS011;25554;44.954;10.068;2022-08-14T05:06:17;10.30;;;8.07;;
39880;SDS011;25554;44.954;10.068;2022-08-14T05:11:10;7.57;;;6.75;;
39880;SDS011;25554;44.954;10.068;2022-08-14T05:16:03;7.63;;;6.85;;
39880;SDS011;25554;44.954;10.068;2022-08-14T05:18:33;10.30;;;6.57;;
39880;SDS011;25554;44.954;10.068;2022-08-14T05:21:03;7.82;;;6.63;;
39880;SDS011;25554;44.954;10.068;2022-08-14T05:23:31;9.10;;;6.78;;
39880;SDS011;25554;44.954;10.068;2022-08-14T05:26:01;7.28;;;6.57;;
39880;SDS011;25554;44.954;10.068;2022-08-14T05:28:29;8.23;;;6.32;;
39880;SDS011;25554;44.954;10.068;2022-08-14T05:31:00;7.00;;;6.03;;
39880;SDS011;25554;44.954;10.068;2022-08-14T05:33:29;6.53;;;5.65;;
39880;SDS011;25554;44.954;10.068;2022-08-14T05:35:58;6.82;;;6.13;;
39880;SDS011;25554;44.954;10.068;2022-08-14T05:38:26;7.63;;;6.63;;
39880;SDS011;25554;44.954;10.068;2022-08-14T05:41:19;8.95;;;6.55;;
39880;SDS011;25554;44.954;10.068;2022-08-14T05:43:45;8.47;;;6.13;;
39880;SDS011;25554;44.954;10.068;2022-08-14T05:46:15;6.90;;;6.25;;
39880;SDS011;25554;44.954;10.068;2022-08-14T05:48:50;7.55;;;6.28;;
39880;SDS011;25554;44.954;10.068;2022-08-14T05:51:19;6.75;;;6.15;;
39880;SDS011;25554;44.954;10.068;2022-08-14T05:53:47;8.95;;;6.93;;
39880;SDS011;25554;44.954;10.068;2022-08-14T05:56:13;7.45;;;6.60;;
39880;SDS011;25554;44.954;10.068;2022-08-14T06:01:06;9.38;;;7.00;;
39880;SDS011;25554;44.954;10.068;2022-08-14T06:03:34;8.40;;;7.28;;
39880;SDS011;25554;44.954;10.068;2022-08-14T06:06:00;9.45;;;6.63;;
39880;SDS011;25554;44.954;10.068;2022-08-14T06:08:28;8.45;;;7.07;;
39880;SDS011;25554;44.954;10.068;2022-08-14T06:10:56;8.05;;;6.20;;
39880;SDS011;25554;44.954;10.068;2022-08-14T06:13:33;7.68;;;6.72;;
39880;SDS011;25554;44.954;10.068;2022-08-14T06:16:02;10.82;;;7.07;;
39880;SDS011;25554;44.954;10.068;2022-08-14T06:18:28;8.60;;;6.80;;
39880;SDS011;25554;44.954;10.068;2022-08-14T06:20:55;7.75;;;6.60;;
39880;SDS011;25554;44.954;10.068;2022-08-14T06:23:22;8.32;;;7.07;;
39880;SDS011;25554;44.954;10.068;2022-08-14T06:25:49;7.13;;;6.43;;
39880;SDS011;25554;44.954;10.068;2022-08-14T06:28:19;8.88;;;7.97;;
39880;SDS011;25554;44.954;10.068;2022-08-14T06:30:47;8.23;;;7.43;;
39880;SDS011;25554;44.954;10.068;2022-08-14T06:33:15;8.90;;;8.07;;
39880;SDS011;25554;44.954;10.068;2022-08-14T06:35:42;9.23;;;8.32;;
39880;SDS011;25554;44.954;10.068;2022-08-14T06:38:12;11.05;;;8.30;;
39880;SDS011;25554;44.954;10.068;2022-08-14T06:40:43;10.63;;;8.13;;
39880;SDS011;25554;44.954;10.068;2022-08-14T06:43:10;9.02;;;8.13;;
39880;SDS011;25554;44.954;10.068;2022-08-14T06:45:38;12.30;;;7.38;;
39880;SDS011;25554;44.954;10.068;2022-08-14T06:48:13;9.40;;;7.10;;
39880;SDS011;25554;44.954;10.068;2022-08-14T06:50:42;7.80;;;7.03;;
39880;SDS011;25554;44.954;10.068;2022-08-14T06:53:09;9.63;;;7.03;;
39880;SDS011;25554;44.954;10.068;2022-08-14T06:55:36;9.27;;;8.38;;
39880;SDS011;25554;44.954;10.068;2022-08-14T06:58:03;9.50;;;8.60;;
39880;SDS011;25554;44.954;10.068;2022-08-14T07:00:30;8.68;;;7.90;;
39880;SDS011;25554;44.954;10.068;2022-08-14T07:02:56;8.88;;;7.97;;
39880;SDS011;25554;44.954;10.068;2022-08-14T07:05:42;8.90;;;8.10;;
39880;SDS011;25554;44.954;10.068;2022-08-14T07:08:28;10.60;;;8.90;;
39880;SDS011;25554;44.954;10.068;2022-08-14T07:10:59;8.63;;;7.93;;
39880;SDS011;25554;44.954;10.068;2022-08-14T07:13:28;6.68;;;6.07;;
39880;SDS011;25554;44.954;10.068;2022-08-14T07:15:55;7.50;;;6.80;;
39880;SDS011;25554;44.954;10.068;2022-08-14T07:18:27;8.48;;;7.60;;
39880;SDS011;25554;44.954;10.068;2022-08-14T07:20:56;8.40;;;7.28;;
39880;SDS011;25554;44.954;10.068;2022-08-14T07:23:23;8.85;;;8.05;;
39880;SDS011;25554;44.954;10.068;2022-08-14T07:25:53;10.80;;;8.80;;
39880;SDS011;25554;44.954;10.068;2022-08-14T07:28:22;11.70;;;8.93;;
39880;SDS011;25554;44.954;10.068;2022-08-14T07:30:55;8.77;;;7.88;;
39880;SDS011;25554;44.954;10.068;2022-08-14T07:33:24;9.40;;;8.50;;
39880;SDS011;25554;44.954;10.068;2022-08-14T07:35:51;8.50;;;7.70;;
39880;SDS011;25554;44.954;10.068;2022-08-14T07:38:19;8.57;;;7.68;;
39880;SDS011;25554;44.954;10.068;2022-08-14T07:40:47;8.23;;;7.53;;
39880;SDS011;25554;44.954;10.068;2022-08-14T07:43:15;9.82;;;8.85;;
39880;SDS011;25554;44.954;10.068;2022-08-14T07:45:42;8.93;;;8.15;;
39880;SDS011;25554;44.954;10.068;2022-08-14T07:48:09;9.82;;;8.93;;
39880;SDS011;25554;44.954;10.068;2022-08-14T07:50:35;9.93;;;8.88;;
39880;SDS011;25554;44.954;10.068;2022-08-14T07:53:04;11.55;;;10.18;;
39880;SDS011;25554;44.954;10.068;2022-08-14T07:55:33;11.52;;;10.52;;
39880;SDS011;25554;44.954;10.068;2022-08-14T07:58:01;9.77;;;8.85;;
39880;SDS011;25554;44.954;10.068;2022-08-14T08:00:28;10.10;;;9.20;;
39880;SDS011;25554;44.954;10.068;2022-08-14T08:02:56;9.55;;;8.65;;
39880;SDS011;25554;44.954;10.068;2022-08-14T08:05:24;10.40;;;9.35;;
39880;SDS011;25554;44.954;10.068;2022-08-14T08:07:51;9.85;;;8.95;;
39880;SDS011;25554;44.954;10.068;2022-08-14T08:10:20;9.82;;;8.88;;
39880;SDS011;25554;44.954;10.068;2022-08-14T08:13:07;10.68;;;9.73;;
39880;SDS011;25554;44.954;10.068;2022-08-14T08:15:37;10.55;;;9.23;;
39880;SDS011;25554;44.954;10.068;2022-08-14T08:18:06;11.02;;;9.93;;
39880;SDS011;25554;44.954;10.068;2022-08-14T08:20:36;12.95;;;9.32;;
39880;SDS011;25554;44.954;10.068;2022-08-14T08:23:05;10.77;;;8.82;;
39880;SDS011;25554;44.954;10.068;2022-08-14T08:25:36;9.88;;;8.82;;
39880;SDS011;25554;44.954;10.068;2022-08-14T08:28:05;13.25;;;10.10;;
39880;SDS011;25554;44.954;10.068;2022-08-14T08:30:37;13.48;;;9.18;;
39880;SDS011;25554;44.954;10.068;2022-08-14T08:33:06;9.45;;;8.02;;
39880;SDS011;25554;44.954;10.068;2022-08-14T08:35:36;9.93;;;8.93;;
39880;SDS011;25554;44.954;10.068;2022-08-14T08:38:08;10.27;;;9.27;;
39880;SDS011;25554;44.954;10.068;2022-08-14T08:40:41;12.13;;;8.13;;
39880;SDS011;25554;44.954;10.068;2022-08-14T08:43:32;9.35;;;8.48;;
39880;SDS011;25554;44.954;10.068;2022-08-14T08:46:01;6.55;;;5.90;;
39880;SDS011;25554;44.954;10.068;2022-08-14T08:48:29;5.88;;;5.28;;
39880;SDS011;25554;44.954;10.068;2022-08-14T08:51:17;9.80;;;6.85;;
39880;SDS011;25554;44.954;10.068;2022-08-14T08:56:33;6.47;;;5.30;;
39880;SDS011;25554;44.954;10.068;2022-08-14T08:59:01;7.55;;;6.68;;
39880;SDS011;25554;44.954;10.068;2022-08-14T09:01:29;5.88;;;5.25;;
39880;SDS011;25554;44.954;10.068;2022-08-14T09:04:02;6.68;;;6.07;;
39880;SDS011;25554;44.954;10.068;2022-08-14T09:06:29;5.03;;;4.53;;
39880;SDS011;25554;44.954;10.068;2022-08-14T09:08:56;4.78;;;3.92;;
39880;SDS011;25554;44.954;10.068;2022-08-14T09:11:22;6.38;;;5.70;;
39880;SDS011;25554;44.954;10.068;2022-08-14T09:13:49;5.43;;;4.93;;
39880;SDS011;25554;44.954;10.068;2022-08-14T09:16:18;4.72;;;4.35;;
39880;SDS011;25554;44.954;10.068;2022-08-14T09:18:49;5.03;;;3.90;;
39880;SDS011;25554;44.954;10.068;2022-08-14T09:21:15;4.07;;;3.35;;
39880;SDS011;25554;44.954;10.068;2022-08-14T09:23:43;3.10;;;2.80;;
39880;SDS011;25554;44.954;10.068;2022-08-14T09:26:09;4.13;;;3.40;;
39880;SDS011;25554;44.954;10.068;2022-08-14T09:28:36;4.03;;;3.20;;
39880;SDS011;25554;44.954;10.068;2022-08-14T09:31:02;3.35;;;2.90;;
39880;SDS011;25554;44.954;10.068;2022-08-14T09:44:14;5.32;;;3.40;;
39880;SDS011;25554;44.954;10.068;2022-08-14T09:47:01;4.30;;;2.70;;
39880;SDS011;25554;44.954;10.068;2022-08-14T09:49:30;2.67;;;2.17;;
39880;SDS011;25554;44.954;10.068;2022-08-14T09:52:05;4.43;;;2.83;;
39880;SDS011;25554;44.954;10.068;2022-08-14T09:54:35;3.85;;;2.58;;
39880;SDS011;25554;44.954;10.068;2022-08-14T09:57:03;3.28;;;2.97;;
39880;SDS011;25554;44.954;10.068;2022-08-14T09:59:44;5.20;;;2.60;;
39880;SDS011;25554;44.954;10.068;2022-08-14T10:05:08;3.05;;;2.50;;
39880;SDS011;25554;44.954;10.068;2022-08-14T10:07:46;4.65;;;2.38;;
39880;SDS011;25554;44.954;10.068;2022-08-14T10:10:35;3.72;;;2.47;;
39880;SDS011;25554;44.954;10.068;2022-08-14T10:13:07;2.70;;;2.50;;
39880;SDS011;25554;44.954;10.068;2022-08-14T10:15:46;4.95;;;2.60;;
39880;SDS011;25554;44.954;10.068;2022-08-14T10:18:14;2.25;;;2.08;;
39880;SDS011;25554;44.954;10.068;2022-08-14T10:20:50;3.22;;;2.30;;
39880;SDS011;25554;44.954;10.068;2022-08-14T10:23:21;3.50;;;2.10;;
39880;SDS011;25554;44.954;10.068;2022-08-14T10:25:50;3.78;;;2.55;;
39880;SDS011;25554;44.954;10.068;2022-08-14T10:28:22;2.53;;;2.10;;
39880;SDS011;25554;44.954;10.068;2022-08-14T10:30:49;2.60;;;2.40;;
39880;SDS011;25554;44.954;10.068;2022-08-14T10:33:25;4.63;;;2.60;;
39880;SDS011;25554;44.954;10.068;2022-08-14T10:35:57;4.47;;;2.38;;
39880;SDS011;25554;44.954;10.068;2022-08-14T10:38:28;3.25;;;2.45;;
39880;SDS011;25554;44.954;10.068;2022-08-14T10:41:11;2.60;;;2.40;;
39880;SDS011;25554;44.954;10.068;2022-08-14T10:43:40;4.43;;;2.30;;
39880;SDS011;25554;44.954;10.068;2022-08-14T10:46:15;3.55;;;2.20;;
39880;SDS011;25554;44.954;10.068;2022-08-14T10:48:56;2.38;;;2.17;;
39880;SDS011;25554;44.954;10.068;2022-08-14T10:51:30;4.32;;;2.00;;
39880;SDS011;25554;44.954;10.068;2022-08-14T10:54:04;4.88;;;2.60;;
39880;SDS011;25554;44.954;10.068;2022-08-14T10:56:34;2.15;;;1.98;;
39880;SDS011;25554;44.954;10.068;2022-08-14T10:59:05;6.80;;;2.00;;
39880;SDS011;25554;44.954;10.068;2022-08-14T11:01:34;9.40;;;2.10;;
39880;SDS011;25554;44.954;10.068;2022-08-14T11:04:03;2.45;;;2.30;;
39880;SDS011;25554;44.954;10.068;2022-08-14T11:06:30;3.53;;;2.15;;
39880;SDS011;25554;44.954;10.068;2022-08-14T11:08:57;3.97;;;2.10;;
39880;SDS011;25554;44.954;10.068;2022-08-14T11:11:24;6.22;;;2.10;;
39880;SDS011;25554;44.954;10.068;2022-08-14T11:13:55;2.53;;;2.33;;
39880;SDS011;25554;44.954;10.068;2022-08-14T11:16:24;3.00;;;1.90;;
39880;SDS011;25554;44.954;10.068;2022-08-14T11:18:52;2.78;;;1.70;;
39880;SDS011;25554;44.954;10.068;2022-08-14T11:21:20;3.85;;;2.08;;
39880;SDS011;25554;44.954;10.068;2022-08-14T11:23:47;3.35;;;2.30;;
39880;SDS011;25554;44.954;10.068;2022-08-14T11:26:15;2.20;;;2.00;;
39880;SDS011;25554;44.954;10.068;2022-08-14T11:28:48;3.30;;;2.03;;
39880;SDS011;25554;44.954;10.068;2022-08-14T11:31:20;1.90;;;1.80;;
39880;SDS011;25554;44.954;10.068;2022-08-14T11:33:49;2.28;;;1.95;;
39880;SDS011;25554;44.954;10.068;2022-08-14T11:36:23;2.70;;;1.77;;
39880;SDS011;25554;44.954;10.068;2022-08-14T11:38:54;3.10;;;1.80;;
39880;SDS011;25554;44.954;10.068;2022-08-14T11:41:22;2.85;;;2.15;;
39880;SDS011;25554;44.954;10.068;2022-08-14T11:43:51;5.55;;;2.03;;
39880;SDS011;25554;44.954;10.068;2022-08-14T11:46:19;2.90;;;2.05;;
39880;SDS011;25554;44.954;10.068;2022-08-14T11:48:46;2.15;;;1.88;;
39880;SDS011;25554;44.954;10.068;2022-08-14T11:51:18;2.53;;;2.00;;
39880;SDS011;25554;44.954;10.068;2022-08-14T11:53:52;3.80;;;1.95;;
39880;SDS011;25554;44.954;10.068;2022-08-14T11:56:35;5.10;;;2.00;;
39880;SDS011;25554;44.954;10.068;2022-08-14T11:59:05;1.92;;;1.70;;
39880;SDS011;25554;44.954;10.068;2022-08-14T12:01:32;2.75;;;2.15;;
39880;SDS011;25554;44.954;10.068;2022-08-14T12:04:07;3.60;;;1.98;;
39880;SDS011;25554;44.954;10.068;2022-08-14T12:09:13;3.30;;;2.00;;
39880;SDS011;25554;44.954;10.068;2022-08-14T12:11:52;4.10;;;2.08;;
39880;SDS011;25554;44.954;10.068;2022-08-14T12:14:20;2.13;;;1.92;;
39880;SDS011;25554;44.954;10.068;2022-08-14T12:16:57;2.58;;;1.83;;
39880;SDS011;25554;44.954;10.068;2022-08-14T12:19:25;3.75;;;1.92;;
39880;SDS011;25554;44.954;10.068;2022-08-14T12:21:52;4.63;;;1.65;;
39880;SDS011;25554;44.954;10.068;2022-08-14T12:24:19;2.78;;;1.83;;
39880;SDS011;25554;44.954;10.068;2022-08-14T12:26:53;1.77;;;1.63;;
39880;SDS011;25554;44.954;10.068;2022-08-14T12:29:20;1.95;;;1.70;;
39880;SDS011;25554;44.954;10.068;2022-08-14T12:31:56;2.50;;;1.83;;
39880;SDS011;25554;44.954;10.068;2022-08-14T12:34:29;5.15;;;1.80;;
39880;SDS011;25554;44.954;10.068;2022-08-14T12:37:04;1.77;;;1.67;;
39880;SDS011;25554;44.954;10.068;2022-08-14T12:39:31;4.05;;;1.88;;
39880;SDS011;25554;44.954;10.068;2022-08-14T12:41:58;3.40;;;2.13;;
39880;SDS011;25554;44.954;10.068;2022-08-14T12:44:32;2.92;;;2.08;;
39880;SDS011;25554;44.954;10.068;2022-08-14T12:49:30;3.90;;;1.88;;
39880;SDS011;25554;44.954;10.068;2022-08-14T12:51:59;3.67;;;1.77;;
39880;SDS011;25554;44.954;10.068;2022-08-14T12:54:27;1.92;;;1.83;;
39880;SDS011;25554;44.954;10.068;2022-08-14T12:57:07;4.38;;;1.60;;
39880;SDS011;25554;44.954;10.068;2022-08-14T12:59:40;1.65;;;1.55;;
39880;SDS011;25554;44.954;10.068;2022-08-14T13:02:07;4.82;;;1.85;;
39880;SDS011;25554;44.954;10.068;2022-08-14T13:04:48;2.35;;;1.73;;
39880;SDS011;25554;44.954;10.068;2022-08-14T13:07:14;3.08;;;2.03;;
39880;SDS011;25554;44.954;10.068;2022-08-14T13:09:41;2.30;;;1.88;;
39880;SDS011;25554;44.954;10.068;2022-08-14T13:12:09;2.58;;;1.80;;
39880;SDS011;25554;44.954;10.068;2022-08-14T13:14:38;2.28;;;1.63;;
39880;SDS011;25554;44.954;10.068;2022-08-14T13:17:08;2.63;;;1.80;;
39880;SDS011;25554;44.954;10.068;2022-08-14T13:19:37;3.05;;;1.88;;
39880;SDS011;25554;44.954;10.068;2022-08-14T13:22:05;2.10;;;2.00;;
39880;SDS011;25554;44.954;10.068;2022-08-14T13:24:31;2.15;;;1.90;;
39880;SDS011;25554;44.954;10.068;2022-08-14T13:26:59;17.60;;;8.07;;
39880;SDS011;25554;44.954;10.068;2022-08-14T13:29:29;2.15;;;2.00;;
39880;SDS011;25554;44.954;10.068;2022-08-14T13:32:02;4.45;;;2.40;;
39880;SDS011;25554;44.954;10.068;2022-08-14T13:34:30;1.90;;;1.80;;
39880;SDS011;25554;44.954;10.068;2022-08-14T13:36:56;3.30;;;2.00;;
39880;SDS011;25554;44.954;10.068;2022-08-14T13:39:24;2.72;;;1.92;;
39880;SDS011;25554;44.954;10.068;2022-08-14T13:41:51;3.25;;;1.95;;
39880;SDS011;25554;44.954;10.068;2022-08-14T13:44:18;2.58;;;2.03;;
39880;SDS011;25554;44.954;10.068;2022-08-14T13:46:47;3.45;;;1.85;;
39880;SDS011;25554;44.954;10.068;2022-08-14T13:49:14;2.10;;;1.90;;
39880;SDS011;25554;44.954;10.068;2022-08-14T13:51:45;2.40;;;2.15;;
39880;SDS011;25554;44.954;10.068;2022-08-14T13:54:15;2.92;;;2.10;;
39880;SDS011;25554;44.954;10.068;2022-08-14T13:56:47;2.72;;;1.98;;
39880;SDS011;25554;44.954;10.068;2022-08-14T13:59:14;2.05;;;1.85;;
39880;SDS011;25554;44.954;10.068;2022-08-14T14:01:41;1.92;;;1.83;;
39880;SDS011;25554;44.954;10.068;2022-08-14T14:04:14;3.75;;;2.08;;
39880;SDS011;25554;44.954;10.068;2022-08-14T14:06:46;2.92;;;1.80;;
39880;SDS011;25554;44.954;10.068;2022-08-14T14:09:15;2.65;;;2.10;;
39880;SDS011;25554;44.954;10.068;2022-08-14T14:11:51;3.55;;;3.25;;
39880;SDS011;25554;44.954;10.068;2022-08-14T14:14:19;4.25;;;2.45;;
39880;SDS011;25554;44.954;10.068;2022-08-14T14:16:48;6.20;;;2.17;;
39880;SDS011;25554;44.954;10.068;2022-08-14T14:19:19;2.58;;;2.20;;
39880;SDS011;25554;44.954;10.068;2022-08-14T14:21:50;4.18;;;2.30;;
39880;SDS011;25554;44.954;10.068;2022-08-14T14:24:17;2.03;;;1.88;;
39880;SDS011;25554;44.954;10.068;2022-08-14T14:26:44;2.95;;;2.20;;
39880;SDS011;25554;44.954;10.068;2022-08-14T14:29:14;4.85;;;1.90;;
39880;SDS011;25554;44.954;10.068;2022-08-14T14:31:44;2.92;;;2.20;;
39880;SDS011;25554;44.954;10.068;2022-08-14T14:34:13;2.40;;;2.08;;
39880;SDS011;25554;44.954;10.068;2022-08-14T14:36:42;2.22;;;2.00;;
39880;SDS011;25554;44.954;10.068;2022-08-14T14:39:09;3.17;;;2.10;;
39880;SDS011;25554;44.954;10.068;2022-08-14T14:41:37;3.83;;;2.17;;
39880;SDS011;25554;44.954;10.068;2022-08-14T14:44:06;3.42;;;2.20;;
39880;SDS011;25554;44.954;10.068;2022-08-14T14:46:37;5.22;;;2.63;;
39880;SDS011;25554;44.954;10.068;2022-08-14T14:49:07;3.25;;;2.25;;
39880;SDS011;25554;44.954;10.068;2022-08-14T14:51:39;4.25;;;2.10;;
39880;SDS011;25554;44.954;10.068;2022-08-14T14:54:07;2.47;;;2.15;;
39880;SDS011;25554;44.954;10.068;2022-08-14T14:56:33;2.67;;;2.47;;
39880;SDS011;25554;44.954;10.068;2022-08-14T14:59:00;2.35;;;2.15;;
39880;SDS011;25554;44.954;10.068;2022-08-14T15:01:26;4.60;;;2.40;;
39880;SDS011;25554;44.954;10.068;2022-08-14T15:03:53;3.03;;;2.35;;
39880;SDS011;25554;44.954;10.068;2022-08-14T15:06:20;3.58;;;2.35;;
39880;SDS011;25554;44.954;10.068;2022-08-14T15:08:47;2.60;;;2.20;;
39880;SDS011;25554;44.954;10.068;2022-08-14T15:11:14;2.22;;;2.13;;
39880;SDS011;25554;44.954;10.068;2022-08-14T15:13:40;2.25;;;2.05;;
39880;SDS011;25554;44.954;10.068;2022-08-14T15:16:07;3.60;;;2.45;;
39880;SDS011;25554;44.954;10.068;2022-08-14T15:18:34;2.17;;;1.98;;
39880;SDS011;25554;44.954;10.068;2022-08-14T15:21:00;3.75;;;2.28;;
39880;SDS011;25554;44.954;10.068;2022-08-14T15:23:28;2.28;;;2.10;;
39880;SDS011;25554;44.954;10.068;2022-08-14T15:25:55;3.35;;;2.30;;
39880;SDS011;25554;44.954;10.068;2022-08-14T15:28:23;3.53;;;2.00;;